Airfield :
LOGIN :

Register | Disclaimer

   EN    FR    IT 

 










Legend :    VFR   Marginal VFR   IFR   Intensive IFR   Very Intensive IFR
Visi :
Ceiling :
>= 8 km
>= 3000ft
5 to 8 km
1000 to 3000 ft
1500m to 5 km
500 to 1000 ft
800 to 1500m
200 to 500 ft
< 800m
< 200 ft
Symbols :   Thunderstorms  Fog  Heavy snow  Heavy precipitations  Wind > 20 kt
SIGMETs :     Misc.  Thunderstorms  Icing  Turbulence  Mountain Waves  Volcanic Ashes







- Airport Elevation : 74 ft
- IATA code : EIN


EHEH - Eindhoven

CURRENT METAR :
  • 211625Z AUTO 17006KT 130V200 9999 OVC080 04/02 Q1015 BLU 23006KT 9999 FEW018 SCT220

EXPIRED METARs :
  • 211555Z AUTO 17005KT 130V210 9999 BKN085 OVC099 04/02 Q1016 BLU 23006KT 9999 FEW018 SCT220
  • 211525Z AUTO 17005KT 9999 BKN091 OVC096 04/02 Q1016 BLU 23006KT 9999 FEW018 SCT220
  • 211455Z AUTO 20005KT 160V220 9999 OVC100 05/02 Q1016 BLU 23006KT 9999 FEW018 SCT220
  • 211425Z AUTO 21006KT 9999 BKN043 OVC140 05/02 Q1016 BLU 23006KT 9999 FEW018 SCT220
  • 211355Z AUTO 22007KT 180V240 9999 OVC040 05/02 Q1016 BLU 23006KT 9999 FEW018 SCT220
  • 211325Z AUTO 23007KT 200V260 9999 BKN036 OVC200 05/02 Q1016 BLU 23006KT 9999 FEW018 SCT220

TAF TAF EHEH
Valid from the 21 at 12:00 until the 22 at 18:00 UTC


211145Z 2112/2218 24007KT CAVOK
BECMG 2120/2122 16010KT SCT012 BKN020
TEMPO 2121/2209 4000 RADZ SCT007 BKN009 OVC010
PROB30
TEMPO 2121/2123 2000 RASN SCT003 BKN005 OVC008
PROB40
TEMPO 2123/2208 3000 RA BR SCT003 BKN005 OVC008
PROB30
TEMPO 2123/2208 1500 BR SCT002 BKN003 OVC005
BECMG 2203/2206 22008KT
BECMG 2208/2211 28008KT SCT020 BKN030
No reported NOTAMs for that airfield.



MET'MAP, your aeronautical weather chart ! - Copyright ORBIFLY December 2007 - Disclaimer

ORBIFLY MET'MAP TEAM :

Programming & Development : Alexandra Zaïnal
Concept & Development : Baudouin d'Aumeries
Co-Development & Prog : Marc-Olivier Méhu
Technical & hardware support : Manuel Goepfert

Contact : metmap@orbifly.com




SOURCES & CREDITS :

   NOAA